sensor_id;sensor_type;location;lat;lon;timestamp;temperature;humidity
51579;DHT22;47998;53.242;6.386;2023-04-25T00:01:17;6.00;29.50
51579;DHT22;47998;53.242;6.386;2023-04-25T00:03:43;6.00;23.90
51579;DHT22;47998;53.242;6.386;2023-04-25T00:06:08;6.00;1.00
51579;DHT22;47998;53.242;6.386;2023-04-25T00:08:34;6.00;32.20
51579;DHT22;47998;53.242;6.386;2023-04-25T00:11:00;6.10;16.50
51579;DHT22;47998;53.242;6.386;2023-04-25T00:13:26;6.20;86.90
51579;DHT22;47998;53.242;6.386;2023-04-25T00:15:52;6.20;1.00
51579;DHT22;47998;53.242;6.386;2023-04-25T00:18:25;6.20;1.00
51579;DHT22;47998;53.242;6.386;2023-04-25T00:20:54;6.10;99.90
51579;DHT22;47998;53.242;6.386;2023-04-25T00:23:20;6.00;99.90
51579;DHT22;47998;53.242;6.386;2023-04-25T00:25:50;6.00;99.90
51579;DHT22;47998;53.242;6.386;2023-04-25T00:28:16;6.00;99.90
51579;DHT22;47998;53.242;6.386;2023-04-25T00:30:42;6.00;99.90
51579;DHT22;47998;53.242;6.386;2023-04-25T00:33:09;6.00;18.70
51579;DHT22;47998;53.242;6.386;2023-04-25T00:35:35;6.00;1.00
51579;DHT22;47998;53.242;6.386;2023-04-25T00:38:01;6.00;1.00
51579;DHT22;47998;53.242;6.386;2023-04-25T00:40:28;6.00;17.80
51579;DHT22;47998;53.242;6.386;2023-04-25T00:42:54;5.90;1.00
51579;DHT22;47998;53.242;6.386;2023-04-25T00:45:20;5.90;32.50
51579;DHT22;47998;53.242;6.386;2023-04-25T00:47:46;5.90;1.00
51579;DHT22;47998;53.242;6.386;2023-04-25T00:50:13;5.90;1.00
51579;DHT22;47998;53.242;6.386;2023-04-25T00:52:43;5.90;1.00
51579;DHT22;47998;53.242;6.386;2023-04-25T00:55:10;5.90;1.00
51579;DHT22;47998;53.242;6.386;2023-04-25T00:57:37;5.80;1.00
51579;DHT22;47998;53.242;6.386;2023-04-25T01:00:05;5.80;99.90
51579;DHT22;47998;53.242;6.386;2023-04-25T01:02:35;5.70;1.00
51579;DHT22;47998;53.242;6.386;2023-04-25T01:05:02;5.70;99.90
51579;DHT22;47998;53.242;6.386;2023-04-25T01:07:28;5.70;99.90
51579;DHT22;47998;53.242;6.386;2023-04-25T01:09:54;5.60;99.90
51579;DHT22;47998;53.242;6.386;2023-04-25T01:12:20;5.60;99.90
51579;DHT22;47998;53.242;6.386;2023-04-25T01:14:46;5.50;99.90
51579;DHT22;47998;53.242;6.386;2023-04-25T01:17:12;5.50;99.90
51579;DHT22;47998;53.242;6.386;2023-04-25T01:19:38;5.50;99.90
51579;DHT22;47998;53.242;6.386;2023-04-25T01:22:05;5.60;99.90
51579;DHT22;47998;53.242;6.386;2023-04-25T01:24:34;5.60;92.20
51579;DHT22;47998;53.242;6.386;2023-04-25T01:27:03;5.70;38.30
51579;DHT22;47998;53.242;6.386;2023-04-25T01:29:29;5.70;11.90
51579;DHT22;47998;53.242;6.386;2023-04-25T01:31:55;5.70;55.80
51579;DHT22;47998;53.242;6.386;2023-04-25T01:34:22;5.70;99.90
51579;DHT22;47998;53.242;6.386;2023-04-25T01:36:49;5.70;99.90
51579;DHT22;47998;53.242;6.386;2023-04-25T01:39:17;5.80;99.90
51579;DHT22;47998;53.242;6.386;2023-04-25T01:41:43;5.70;1.00
51579;DHT22;47998;53.242;6.386;2023-04-25T01:44:09;5.70;1.00
51579;DHT22;47998;53.242;6.386;2023-04-25T01:46:35;5.60;1.00
51579;DHT22;47998;53.242;6.386;2023-04-25T01:49:01;5.70;1.00
51579;DHT22;47998;53.242;6.386;2023-04-25T01:51:27;5.70;1.00
51579;DHT22;47998;53.242;6.386;2023-04-25T01:53:53;5.60;1.00
51579;DHT22;47998;53.242;6.386;2023-04-25T01:56:19;5.60;1.00
51579;DHT22;47998;53.242;6.386;2023-04-25T01:58:45;5.60;1.00
51579;DHT22;47998;53.242;6.386;2023-04-25T02:01:11;5.60;1.00
51579;DHT22;47998;53.242;6.386;2023-04-25T02:03:37;5.60;1.00
51579;DHT22;47998;53.242;6.386;2023-04-25T02:06:04;5.60;1.00
51579;DHT22;47998;53.242;6.386;2023-04-25T02:08:30;5.60;1.00
51579;DHT22;47998;53.242;6.386;2023-04-25T02:10:57;5.60;1.00
51579;DHT22;47998;53.242;6.386;2023-04-25T02:13:22;5.70;99.90
51579;DHT22;47998;53.242;6.386;2023-04-25T02:15:48;5.70;99.90
51579;DHT22;47998;53.242;6.386;2023-04-25T02:18:14;5.70;1.00
51579;DHT22;47998;53.242;6.386;2023-04-25T02:20:42;5.60;91.40
51579;DHT22;47998;53.242;6.386;2023-04-25T02:23:08;5.60;99.90
51579;DHT22;47998;53.242;6.386;2023-04-25T02:25:33;5.50;99.90
51579;DHT22;47998;53.242;6.386;2023-04-25T02:27:59;5.50;99.90
51579;DHT22;47998;53.242;6.386;2023-04-25T02:30:25;5.50;99.90
51579;DHT22;47998;53.242;6.386;2023-04-25T02:32:51;5.40;99.90
51579;DHT22;47998;53.242;6.386;2023-04-25T02:35:17;5.40;99.90
51579;DHT22;47998;53.242;6.386;2023-04-25T02:37:43;5.30;91.90
51579;DHT22;47998;53.242;6.386;2023-04-25T02:40:09;5.40;99.90
51579;DHT22;47998;53.242;6.386;2023-04-25T02:42:35;5.30;99.90
51579;DHT22;47998;53.242;6.386;2023-04-25T02:45:01;5.30;99.90
51579;DHT22;47998;53.242;6.386;2023-04-25T02:47:28;5.30;99.90
51579;DHT22;47998;53.242;6.386;2023-04-25T02:49:53;5.30;81.50
51579;DHT22;47998;53.242;6.386;2023-04-25T02:52:19;5.30;99.90
51579;DHT22;47998;53.242;6.386;2023-04-25T02:54:45;5.30;99.90
51579;DHT22;47998;53.242;6.386;2023-04-25T02:57:10;5.30;1.40
51579;DHT22;47998;53.242;6.386;2023-04-25T02:59:36;5.40;1.00
51579;DHT22;47998;53.242;6.386;2023-04-25T03:02:02;5.40;1.00
51579;DHT22;47998;53.242;6.386;2023-04-25T03:04:28;5.30;99.90
51579;DHT22;47998;53.242;6.386;2023-04-25T03:06:53;5.30;99.90
51579;DHT22;47998;53.242;6.386;2023-04-25T03:09:20;5.20;50.70
51579;DHT22;47998;53.242;6.386;2023-04-25T03:11:45;5.10;99.10
51579;DHT22;47998;53.242;6.386;2023-04-25T03:14:12;4.90;93.20
51579;DHT22;47998;53.242;6.386;2023-04-25T03:16:38;4.80;99.90
51579;DHT22;47998;53.242;6.386;2023-04-25T03:19:03;4.80;99.90
51579;DHT22;47998;53.242;6.386;2023-04-25T03:21:33;4.70;99.90
51579;DHT22;47998;53.242;6.386;2023-04-25T03:24:02;4.70;99.90
51579;DHT22;47998;53.242;6.386;2023-04-25T03:26:28;4.50;99.90
51579;DHT22;47998;53.242;6.386;2023-04-25T03:28:54;4.50;99.90
51579;DHT22;47998;53.242;6.386;2023-04-25T03:31:19;4.40;99.90
51579;DHT22;47998;53.242;6.386;2023-04-25T03:33:45;4.40;99.90
51579;DHT22;47998;53.242;6.386;2023-04-25T03:36:11;4.30;1.00
51579;DHT22;47998;53.242;6.386;2023-04-25T03:38:37;4.20;1.00
51579;DHT22;47998;53.242;6.386;2023-04-25T03:41:02;4.20;1.00
51579;DHT22;47998;53.242;6.386;2023-04-25T03:43:28;4.20;1.00
51579;DHT22;47998;53.242;6.386;2023-04-25T03:45:54;4.30;1.00
51579;DHT22;47998;53.242;6.386;2023-04-25T03:48:20;4.30;1.00
51579;DHT22;47998;53.242;6.386;2023-04-25T03:50:50;4.20;33.00
51579;DHT22;47998;53.242;6.386;2023-04-25T03:53:16;4.10;99.90
51579;DHT22;47998;53.242;6.386;2023-04-25T03:55:41;4.10;99.90
51579;DHT22;47998;53.242;6.386;2023-04-25T03:58:07;4.10;99.90
51579;DHT22;47998;53.242;6.386;2023-04-25T04:00:35;4.20;99.90
51579;DHT22;47998;53.242;6.386;2023-04-25T04:03:01;4.30;99.90
51579;DHT22;47998;53.242;6.386;2023-04-25T04:05:26;4.30;99.90
51579;DHT22;47998;53.242;6.386;2023-04-25T04:07:53;4.30;99.90
51579;DHT22;47998;53.242;6.386;2023-04-25T04:10:19;4.40;99.90
51579;DHT22;47998;53.242;6.386;2023-04-25T04:12:44;4.40;99.90
51579;DHT22;47998;53.242;6.386;2023-04-25T04:15:11;4.30;99.90
51579;DHT22;47998;53.242;6.386;2023-04-25T04:17:37;4.20;99.90
51579;DHT22;47998;53.242;6.386;2023-04-25T04:20:03;4.10;99.90
51579;DHT22;47998;53.242;6.386;2023-04-25T04:22:29;4.00;99.90
51579;DHT22;47998;53.242;6.386;2023-04-25T04:24:55;3.80;99.90
51579;DHT22;47998;53.242;6.386;2023-04-25T04:27:22;3.70;99.90
51579;DHT22;47998;53.242;6.386;2023-04-25T04:29:48;3.50;1.00
51579;DHT22;47998;53.242;6.386;2023-04-25T04:32:15;3.30;1.00
51579;DHT22;47998;53.242;6.386;2023-04-25T04:34:41;3.10;1.00
51579;DHT22;47998;53.242;6.386;2023-04-25T04:37:07;2.90;1.00
51579;DHT22;47998;53.242;6.386;2023-04-25T04:39:33;2.90;1.00
51579;DHT22;47998;53.242;6.386;2023-04-25T04:41:59;2.70;35.30
51579;DHT22;47998;53.242;6.386;2023-04-25T04:44:27;2.80;99.90
51579;DHT22;47998;53.242;6.386;2023-04-25T04:46:54;2.80;99.90
51579;DHT22;47998;53.242;6.386;2023-04-25T04:49:21;2.80;99.90
51579;DHT22;47998;53.242;6.386;2023-04-25T04:51:47;2.90;99.90
51579;DHT22;47998;53.242;6.386;2023-04-25T04:54:15;3.10;99.90
51579;DHT22;47998;53.242;6.386;2023-04-25T04:56:40;3.30;1.00
51579;DHT22;47998;53.242;6.386;2023-04-25T04:59:07;3.40;99.90
51579;DHT22;47998;53.242;6.386;2023-04-25T05:01:33;3.60;99.90
51579;DHT22;47998;53.242;6.386;2023-04-25T05:04:01;3.90;99.90
51579;DHT22;47998;53.242;6.386;2023-04-25T05:06:28;4.10;99.90
51579;DHT22;47998;53.242;6.386;2023-04-25T05:08:57;4.10;99.90
51579;DHT22;47998;53.242;6.386;2023-04-25T05:11:24;4.20;99.90
51579;DHT22;47998;53.242;6.386;2023-04-25T05:13:53;4.10;99.90
51579;DHT22;47998;53.242;6.386;2023-04-25T05:16:19;3.90;99.90
51579;DHT22;47998;53.242;6.386;2023-04-25T05:18:45;3.80;99.90
51579;DHT22;47998;53.242;6.386;2023-04-25T05:21:11;3.70;99.90
51579;DHT22;47998;53.242;6.386;2023-04-25T05:23:36;3.60;99.90
51579;DHT22;47998;53.242;6.386;2023-04-25T05:26:02;3.60;99.90
51579;DHT22;47998;53.242;6.386;2023-04-25T05:28:28;3.60;99.90
51579;DHT22;47998;53.242;6.386;2023-04-25T05:30:54;3.70;1.00
51579;DHT22;47998;53.242;6.386;2023-04-25T05:33:19;3.90;1.00
51579;DHT22;47998;53.242;6.386;2023-04-25T05:35:45;4.00;1.00
51579;DHT22;47998;53.242;6.386;2023-04-25T05:38:11;4.20;1.00
51579;DHT22;47998;53.242;6.386;2023-04-25T05:40:37;4.40;1.00
51579;DHT22;47998;53.242;6.386;2023-04-25T05:43:03;4.60;1.00
51579;DHT22;47998;53.242;6.386;2023-04-25T05:45:29;4.70;1.00
51579;DHT22;47998;53.242;6.386;2023-04-25T05:47:54;4.70;99.90
51579;DHT22;47998;53.242;6.386;2023-04-25T05:50:20;4.70;99.90
51579;DHT22;47998;53.242;6.386;2023-04-25T05:52:46;4.70;99.90
51579;DHT22;47998;53.242;6.386;2023-04-25T05:55:12;4.80;99.90
51579;DHT22;47998;53.242;6.386;2023-04-25T05:57:38;4.90;99.90
51579;DHT22;47998;53.242;6.386;2023-04-25T06:00:11;5.10;47.10
51579;DHT22;47998;53.242;6.386;2023-04-25T06:02:37;5.30;99.90
51579;DHT22;47998;53.242;6.386;2023-04-25T06:05:03;5.50;99.90
51579;DHT22;47998;53.242;6.386;2023-04-25T06:07:29;5.80;34.00
51579;DHT22;47998;53.242;6.386;2023-04-25T06:09:56;6.10;1.00
51579;DHT22;47998;53.242;6.386;2023-04-25T06:12:21;6.40;1.00
51579;DHT22;47998;53.242;6.386;2023-04-25T06:14:49;6.80;99.90
51579;DHT22;47998;53.242;6.386;2023-04-25T06:17:15;7.00;1.00
51579;DHT22;47998;53.242;6.386;2023-04-25T06:19:41;7.20;1.00
51579;DHT22;47998;53.242;6.386;2023-04-25T06:22:07;7.30;1.00
51579;DHT22;47998;53.242;6.386;2023-04-25T06:24:33;7.30;1.00
51579;DHT22;47998;53.242;6.386;2023-04-25T06:27:02;7.10;99.90
51579;DHT22;47998;53.242;6.386;2023-04-25T06:29:28;6.90;99.90
51579;DHT22;47998;53.242;6.386;2023-04-25T06:31:53;6.70;75.90
51579;DHT22;47998;53.242;6.386;2023-04-25T06:34:19;6.60;99.90
51579;DHT22;47998;53.242;6.386;2023-04-25T06:36:45;6.50;1.00
51579;DHT22;47998;53.242;6.386;2023-04-25T06:39:11;6.40;1.00
51579;DHT22;47998;53.242;6.386;2023-04-25T06:41:37;6.30;1.00
51579;DHT22;47998;53.242;6.386;2023-04-25T06:44:03;6.20;1.00
51579;DHT22;47998;53.242;6.386;2023-04-25T06:46:28;6.10;1.00
51579;DHT22;47998;53.242;6.386;2023-04-25T06:48:56;6.00;1.00
51579;DHT22;47998;53.242;6.386;2023-04-25T06:51:22;6.00;99.90
51579;DHT22;47998;53.242;6.386;2023-04-25T06:53:49;6.10;50.40
51579;DHT22;47998;53.242;6.386;2023-04-25T06:56:16;6.10;99.90
51579;DHT22;47998;53.242;6.386;2023-04-25T06:58:41;6.20;99.90
51579;DHT22;47998;53.242;6.386;2023-04-25T07:01:07;6.30;99.90
51579;DHT22;47998;53.242;6.386;2023-04-25T07:03:33;6.40;99.90
51579;DHT22;47998;53.242;6.386;2023-04-25T07:05:58;6.50;86.70
51579;DHT22;47998;53.242;6.386;2023-04-25T07:08:25;6.50;99.90
51579;DHT22;47998;53.242;6.386;2023-04-25T07:10:51;6.70;1.00
51579;DHT22;47998;53.242;6.386;2023-04-25T07:13:16;6.80;1.00
51579;DHT22;47998;53.242;6.386;2023-04-25T07:15:43;6.90;99.90
51579;DHT22;47998;53.242;6.386;2023-04-25T07:18:09;7.10;99.90
51579;DHT22;47998;53.242;6.386;2023-04-25T07:20:35;7.20;99.90
51579;DHT22;47998;53.242;6.386;2023-04-25T07:23:00;7.20;99.90
51579;DHT22;47998;53.242;6.386;2023-04-25T07:25:26;7.20;99.90
51579;DHT22;47998;53.242;6.386;2023-04-25T07:27:52;7.20;99.90
51579;DHT22;47998;53.242;6.386;2023-04-25T07:30:17;7.30;99.90
51579;DHT22;47998;53.242;6.386;2023-04-25T07:32:43;7.30;1.00
51579;DHT22;47998;53.242;6.386;2023-04-25T07:35:09;7.00;99.90
51579;DHT22;47998;53.242;6.386;2023-04-25T07:37:35;6.20;1.00
51579;DHT22;47998;53.242;6.386;2023-04-25T07:40:02;5.70;95.10
51579;DHT22;47998;53.242;6.386;2023-04-25T07:42:29;5.70;99.90
51579;DHT22;47998;53.242;6.386;2023-04-25T07:44:55;5.80;99.90
51579;DHT22;47998;53.242;6.386;2023-04-25T07:47:21;6.00;1.00
51579;DHT22;47998;53.242;6.386;2023-04-25T07:49:47;6.20;1.00
51579;DHT22;47998;53.242;6.386;2023-04-25T07:52:13;6.60;1.00
51579;DHT22;47998;53.242;6.386;2023-04-25T07:54:38;7.00;99.90
51579;DHT22;47998;53.242;6.386;2023-04-25T07:57:04;7.50;1.00
51579;DHT22;47998;53.242;6.386;2023-04-25T07:59:32;6.50;99.90
51579;DHT22;47998;53.242;6.386;2023-04-25T08:01:58;5.40;99.90
51579;DHT22;47998;53.242;6.386;2023-04-25T08:04:24;4.70;99.90
51579;DHT22;47998;53.242;6.386;2023-04-25T08:06:51;4.40;1.00
51579;DHT22;47998;53.242;6.386;2023-04-25T08:09:18;4.30;1.00
51579;DHT22;47998;53.242;6.386;2023-04-25T08:11:44;4.60;28.40
51579;DHT22;47998;53.242;6.386;2023-04-25T08:14:09;4.70;1.00
51579;DHT22;47998;53.242;6.386;2023-04-25T08:16:35;4.90;77.70
51579;DHT22;47998;53.242;6.386;2023-04-25T08:19:01;5.10;99.90
51579;DHT22;47998;53.242;6.386;2023-04-25T08:21:27;5.20;44.40
51579;DHT22;47998;53.242;6.386;2023-04-25T08:23:53;5.10;1.00
51579;DHT22;47998;53.242;6.386;2023-04-25T08:26:19;5.10;8.50
51579;DHT22;47998;53.242;6.386;2023-04-25T08:28:46;5.50;99.90
51579;DHT22;47998;53.242;6.386;2023-04-25T08:31:12;5.60;92.00
51579;DHT22;47998;53.242;6.386;2023-04-25T08:33:37;5.60;1.00
51579;DHT22;47998;53.242;6.386;2023-04-25T08:36:03;5.80;99.90
51579;DHT22;47998;53.242;6.386;2023-04-25T08:38:29;5.90;1.00
51579;DHT22;47998;53.242;6.386;2023-04-25T08:40:56;6.00;1.00
51579;DHT22;47998;53.242;6.386;2023-04-25T08:43:25;6.20;99.90
51579;DHT22;47998;53.242;6.386;2023-04-25T08:45:53;6.40;99.90
51579;DHT22;47998;53.242;6.386;2023-04-25T08:48:19;6.40;1.00
51579;DHT22;47998;53.242;6.386;2023-04-25T08:50:50;6.30;1.00
51579;DHT22;47998;53.242;6.386;2023-04-25T08:53:17;6.50;99.90
51579;DHT22;47998;53.242;6.386;2023-04-25T08:55:46;6.60;99.90
51579;DHT22;47998;53.242;6.386;2023-04-25T08:58:12;7.10;99.90
51579;DHT22;47998;53.242;6.386;2023-04-25T09:00:39;7.50;99.90
51579;DHT22;47998;53.242;6.386;2023-04-25T09:03:05;8.40;99.90
51579;DHT22;47998;53.242;6.386;2023-04-25T09:05:33;9.10;99.90
51579;DHT22;47998;53.242;6.386;2023-04-25T09:08:00;9.00;99.90
51579;DHT22;47998;53.242;6.386;2023-04-25T09:10:26;8.90;99.90
51579;DHT22;47998;53.242;6.386;2023-04-25T09:13:06;9.20;1.00
51579;DHT22;47998;53.242;6.386;2023-04-25T09:18:12;9.80;1.00
51579;DHT22;47998;53.242;6.386;2023-04-25T09:20:46;8.90;94.40
51579;DHT22;47998;53.242;6.386;2023-04-25T09:23:14;8.20;99.90
51579;DHT22;47998;53.242;6.386;2023-04-25T09:25:39;8.20;99.90
51579;DHT22;47998;53.242;6.386;2023-04-25T09:28:06;8.60;1.00
51579;DHT22;47998;53.242;6.386;2023-04-25T09:30:36;9.30;99.90
51579;DHT22;47998;53.242;6.386;2023-04-25T09:33:06;9.70;99.90
51579;DHT22;47998;53.242;6.386;2023-04-25T09:35:43;9.70;1.00
51579;DHT22;47998;53.242;6.386;2023-04-25T09:38:13;9.20;52.80
51579;DHT22;47998;53.242;6.386;2023-04-25T09:40:43;8.60;99.90
51579;DHT22;47998;53.242;6.386;2023-04-25T09:43:19;8.20;1.00
51579;DHT22;47998;53.242;6.386;2023-04-25T09:45:46;7.90;24.80
51579;DHT22;47998;53.242;6.386;2023-04-25T09:48:17;7.90;99.90
51579;DHT22;47998;53.242;6.386;2023-04-25T09:50:44;8.60;99.90
51579;DHT22;47998;53.242;6.386;2023-04-25T09:53:10;9.00;1.00
51579;DHT22;47998;53.242;6.386;2023-04-25T09:55:36;9.30;1.00
51579;DHT22;47998;53.242;6.386;2023-04-25T09:58:06;9.50;99.90
51579;DHT22;47998;53.242;6.386;2023-04-25T10:00:33;10.10;99.90
51579;DHT22;47998;53.242;6.386;2023-04-25T10:03:04;10.30;1.00
51579;DHT22;47998;53.242;6.386;2023-04-25T10:05:32;10.30;1.00
51579;DHT22;47998;53.242;6.386;2023-04-25T10:08:03;10.10;99.90
51579;DHT22;47998;53.242;6.386;2023-04-25T10:10:32;9.60;1.00
51579;DHT22;47998;53.242;6.386;2023-04-25T10:13:05;8.80;1.00
51579;DHT22;47998;53.242;6.386;2023-04-25T10:15:35;8.20;5.30
51579;DHT22;47998;53.242;6.386;2023-04-25T10:18:02;8.20;1.00
51579;DHT22;47998;53.242;6.386;2023-04-25T10:20:29;8.90;99.90
51579;DHT22;47998;53.242;6.386;2023-04-25T10:23:03;8.80;99.90
51579;DHT22;47998;53.242;6.386;2023-04-25T10:25:29;8.70;5.50
51579;DHT22;47998;53.242;6.386;2023-04-25T10:27:55;9.70;96.90
51579;DHT22;47998;53.242;6.386;2023-04-25T10:30:21;10.10;99.90
51579;DHT22;47998;53.242;6.386;2023-04-25T10:32:47;9.20;3.30
51579;DHT22;47998;53.242;6.386;2023-04-25T10:35:18;8.50;1.00
51579;DHT22;47998;53.242;6.386;2023-04-25T10:38:10;8.10;1.00
51579;DHT22;47998;53.242;6.386;2023-04-25T10:40:36;8.10;99.90
51579;DHT22;47998;53.242;6.386;2023-04-25T10:43:42;8.00;1.00
51579;DHT22;47998;53.242;6.386;2023-04-25T10:46:24;8.80;99.90
51579;DHT22;47998;53.242;6.386;2023-04-25T10:51:22;9.40;1.00
51579;DHT22;47998;53.242;6.386;2023-04-25T10:54:08;9.40;1.00
51579;DHT22;47998;53.242;6.386;2023-04-25T10:56:37;9.20;1.00
51579;DHT22;47998;53.242;6.386;2023-04-25T10:59:09;9.40;99.90
51579;DHT22;47998;53.242;6.386;2023-04-25T11:01:40;9.30;49.40
51579;DHT22;47998;53.242;6.386;2023-04-25T11:04:28;9.60;99.90
51579;DHT22;47998;53.242;6.386;2023-04-25T11:07:17;9.90;99.90
51579;DHT22;47998;53.242;6.386;2023-04-25T11:09:49;10.40;1.00
51579;DHT22;47998;53.242;6.386;2023-04-25T11:12:15;10.40;54.10
51579;DHT22;47998;53.242;6.386;2023-04-25T11:14:41;10.50;1.00
51579;DHT22;47998;53.242;6.386;2023-04-25T11:17:07;10.50;99.90
51579;DHT22;47998;53.242;6.386;2023-04-25T11:19:33;10.60;1.00
51579;DHT22;47998;53.242;6.386;2023-04-25T11:22:00;10.00;99.90
51579;DHT22;47998;53.242;6.386;2023-04-25T11:24:32;9.60;1.00
51579;DHT22;47998;53.242;6.386;2023-04-25T11:26:58;9.80;99.90
51579;DHT22;47998;53.242;6.386;2023-04-25T11:29:28;9.80;1.00
51579;DHT22;47998;53.242;6.386;2023-04-25T11:31:55;10.20;99.90
51579;DHT22;47998;53.242;6.386;2023-04-25T11:34:33;10.10;94.30
51579;DHT22;47998;53.242;6.386;2023-04-25T11:37:03;9.70;99.90
51579;DHT22;47998;53.242;6.386;2023-04-25T11:39:29;10.20;43.80
51579;DHT22;47998;53.242;6.386;2023-04-25T11:41:55;10.60;1.00
51579;DHT22;47998;53.242;6.386;2023-04-25T11:44:21;10.80;99.90
51579;DHT22;47998;53.242;6.386;2023-04-25T11:46:47;10.60;99.90
51579;DHT22;47998;53.242;6.386;2023-04-25T11:49:15;10.30;1.00
51579;DHT22;47998;53.242;6.386;2023-04-25T11:51:47;9.90;99.90
51579;DHT22;47998;53.242;6.386;2023-04-25T11:54:14;9.20;99.90
51579;DHT22;47998;53.242;6.386;2023-04-25T11:56:46;8.70;1.00
51579;DHT22;47998;53.242;6.386;2023-04-25T11:59:12;8.40;99.90
51579;DHT22;47998;53.242;6.386;2023-04-25T12:01:39;8.40;99.90
51579;DHT22;47998;53.242;6.386;2023-04-25T12:04:18;9.10;99.90
51579;DHT22;47998;53.242;6.386;2023-04-25T12:06:46;9.40;43.60
51579;DHT22;47998;53.242;6.386;2023-04-25T12:09:30;9.10;99.90
51579;DHT22;47998;53.242;6.386;2023-04-25T12:11:57;9.40;99.90
51579;DHT22;47998;53.242;6.386;2023-04-25T12:16:54;9.70;99.90
51579;DHT22;47998;53.242;6.386;2023-04-25T12:19:20;9.50;99.90
51579;DHT22;47998;53.242;6.386;2023-04-25T12:21:47;9.70;99.90
51579;DHT22;47998;53.242;6.386;2023-04-25T12:24:18;9.30;99.90
51579;DHT22;47998;53.242;6.386;2023-04-25T12:27:03;8.90;1.00
51579;DHT22;47998;53.242;6.386;2023-04-25T12:29:31;8.70;99.90
51579;DHT22;47998;53.242;6.386;2023-04-25T12:31:57;9.00;43.80
51579;DHT22;47998;53.242;6.386;2023-04-25T12:34:23;9.40;99.90
51579;DHT22;47998;53.242;6.386;2023-04-25T12:36:51;9.90;1.00
51579;DHT22;47998;53.242;6.386;2023-04-25T12:39:22;9.90;99.90
51579;DHT22;47998;53.242;6.386;2023-04-25T12:41:49;9.80;99.90
51579;DHT22;47998;53.242;6.386;2023-04-25T12:44:15;9.70;99.90
51579;DHT22;47998;53.242;6.386;2023-04-25T12:46:41;10.10;83.90
51579;DHT22;47998;53.242;6.386;2023-04-25T12:49:07;9.60;1.00
51579;DHT22;47998;53.242;6.386;2023-04-25T12:51:34;9.10;1.00
51579;DHT22;47998;53.242;6.386;2023-04-25T12:54:01;8.80;1.00
51579;DHT22;47998;53.242;6.386;2023-04-25T12:56:27;8.50;87.00
51579;DHT22;47998;53.242;6.386;2023-04-25T12:58:53;8.10;1.00
51579;DHT22;47998;53.242;6.386;2023-04-25T13:01:20;8.00;99.90
51579;DHT22;47998;53.242;6.386;2023-04-25T13:03:46;7.80;92.90
51579;DHT22;47998;53.242;6.386;2023-04-25T13:06:13;8.00;99.90
51579;DHT22;47998;53.242;6.386;2023-04-25T13:08:39;8.30;99.90
51579;DHT22;47998;53.242;6.386;2023-04-25T13:11:06;8.20;1.00
51579;DHT22;47998;53.242;6.386;2023-04-25T13:13:31;8.10;93.00
51579;DHT22;47998;53.242;6.386;2023-04-25T13:15:58;8.20;99.90
51579;DHT22;47998;53.242;6.386;2023-04-25T13:18:24;9.00;1.00
51579;DHT22;47998;53.242;6.386;2023-04-25T13:20:53;9.40;99.90
51579;DHT22;47998;53.242;6.386;2023-04-25T13:23:20;9.10;99.90
51579;DHT22;47998;53.242;6.386;2023-04-25T13:29:26;8.60;1.00
51579;DHT22;47998;53.242;6.386;2023-04-25T13:31:52;9.40;99.90
51579;DHT22;47998;53.242;6.386;2023-04-25T13:34:18;9.80;99.90
51579;DHT22;47998;53.242;6.386;2023-04-25T13:36:43;10.00;99.90
51579;DHT22;47998;53.242;6.386;2023-04-25T13:39:10;9.90;98.90
51579;DHT22;47998;53.242;6.386;2023-04-25T13:41:36;9.90;99.90
51579;DHT22;47998;53.242;6.386;2023-04-25T13:44:02;9.60;99.90
51579;DHT22;47998;53.242;6.386;2023-04-25T13:46:28;9.70;1.00
51579;DHT22;47998;53.242;6.386;2023-04-25T13:48:54;9.80;1.00
51579;DHT22;47998;53.242;6.386;2023-04-25T13:51:19;10.00;1.00
51579;DHT22;47998;53.242;6.386;2023-04-25T13:53:46;9.50;99.90
51579;DHT22;47998;53.242;6.386;2023-04-25T13:56:12;8.90;99.90
51579;DHT22;47998;53.242;6.386;2023-04-25T13:58:37;9.20;99.90
51579;DHT22;47998;53.242;6.386;2023-04-25T14:01:03;9.30;99.90
51579;DHT22;47998;53.242;6.386;2023-04-25T14:03:29;9.40;14.20
51579;DHT22;47998;53.242;6.386;2023-04-25T14:05:56;9.00;99.90
51579;DHT22;47998;53.242;6.386;2023-04-25T14:08:24;8.60;1.00
51579;DHT22;47998;53.242;6.386;2023-04-25T14:10:49;9.00;99.90
51579;DHT22;47998;53.242;6.386;2023-04-25T14:13:15;8.80;99.90
51579;DHT22;47998;53.242;6.386;2023-04-25T14:15:41;9.10;99.90
51579;DHT22;47998;53.242;6.386;2023-04-25T14:18:07;9.50;99.90
51579;DHT22;47998;53.242;6.386;2023-04-25T14:20:33;9.80;1.00
51579;DHT22;47998;53.242;6.386;2023-04-25T14:22:59;9.90;99.90
51579;DHT22;47998;53.242;6.386;2023-04-25T14:25:25;10.00;99.90
51579;DHT22;47998;53.242;6.386;2023-04-25T14:27:51;9.30;99.90
51579;DHT22;47998;53.242;6.386;2023-04-25T14:30:18;8.90;99.90
51579;DHT22;47998;53.242;6.386;2023-04-25T14:32:44;9.20;1.00
51579;DHT22;47998;53.242;6.386;2023-04-25T14:35:11;8.90;45.50
51579;DHT22;47998;53.242;6.386;2023-04-25T14:37:37;8.30;1.00
51579;DHT22;47998;53.242;6.386;2023-04-25T14:40:03;8.00;76.90
51579;DHT22;47998;53.242;6.386;2023-04-25T14:42:30;7.80;27.70
51579;DHT22;47998;53.242;6.386;2023-04-25T14:44:55;7.90;99.90
51579;DHT22;47998;53.242;6.386;2023-04-25T14:47:21;7.90;99.90
51579;DHT22;47998;53.242;6.386;2023-04-25T14:49:47;8.40;99.90
51579;DHT22;47998;53.242;6.386;2023-04-25T14:52:19;8.40;1.00
51579;DHT22;47998;53.242;6.386;2023-04-25T14:54:46;8.40;99.90
51579;DHT22;47998;53.242;6.386;2023-04-25T14:57:12;8.80;99.90
51579;DHT22;47998;53.242;6.386;2023-04-25T14:59:38;9.00;99.90
51579;DHT22;47998;53.242;6.386;2023-04-25T15:02:04;9.20;99.90
51579;DHT22;47998;53.242;6.386;2023-04-25T15:04:30;9.20;1.00
51579;DHT22;47998;53.242;6.386;2023-04-25T15:06:56;8.60;99.90
51579;DHT22;47998;53.242;6.386;2023-04-25T15:09:22;8.10;99.90
51579;DHT22;47998;53.242;6.386;2023-04-25T15:11:50;7.70;99.90
51579;DHT22;47998;53.242;6.386;2023-04-25T15:14:17;7.70;1.00
51579;DHT22;47998;53.242;6.386;2023-04-25T15:16:42;7.50;1.00
51579;DHT22;47998;53.242;6.386;2023-04-25T15:19:08;7.30;99.90
51579;DHT22;47998;53.242;6.386;2023-04-25T15:21:34;7.10;1.00
51579;DHT22;47998;53.242;6.386;2023-04-25T15:24:00;6.90;33.30
51579;DHT22;47998;53.242;6.386;2023-04-25T15:26:27;7.00;48.00
51579;DHT22;47998;53.242;6.386;2023-04-25T15:28:53;7.10;99.90
51579;DHT22;47998;53.242;6.386;2023-04-25T15:31:19;7.20;1.00
51579;DHT22;47998;53.242;6.386;2023-04-25T15:33:44;7.30;1.00
51579;DHT22;47998;53.242;6.386;2023-04-25T15:36:10;7.50;85.70
51579;DHT22;47998;53.242;6.386;2023-04-25T15:38:36;8.00;1.00
51579;DHT22;47998;53.242;6.386;2023-04-25T15:41:02;8.50;1.00
51579;DHT22;47998;53.242;6.386;2023-04-25T15:43:28;8.80;97.20
51579;DHT22;47998;53.242;6.386;2023-04-25T15:45:54;9.00;35.20
51579;DHT22;47998;53.242;6.386;2023-04-25T15:48:20;8.90;96.10
51579;DHT22;47998;53.242;6.386;2023-04-25T15:50:46;9.00;1.00
51579;DHT22;47998;53.242;6.386;2023-04-25T15:53:11;9.00;99.90
51579;DHT22;47998;53.242;6.386;2023-04-25T15:55:38;8.80;1.00
51579;DHT22;47998;53.242;6.386;2023-04-25T15:58:03;8.90;99.90
51579;DHT22;47998;53.242;6.386;2023-04-25T16:00:29;8.90;1.00